Terminal Aerodrome Forecast
Issued by NWS Tulsa, OK

Home | Current Version | Previous Version | Text Only | Print | Product List | Glossary On
Versions: 1 2 3 4 5 6 7 8 9 10 11 12 13 14
410
FTUS44 KTSA 281037 AAB
TAFFSM
TAF AMD
KFSM 281037Z 2811/2906 VRB05KT P6SM BKN110
      TEMPO 2811/2813 3SM TSRA BR BKN040CB
     FM281400 01005KT P6SM SCT025 OVC050
     FM290000 03003KT P6SM BKN250=

USA.gov is the U.S. government's official web portal to all federal, state and local government web resources and services.